Burlington, Indiana
Current Conditions -  °F | °C
As of 3:15 PM on Thursday 23 Oct 2014 (Local Time) from KGGP Reporting Station
Clear Clear  
Wind Chill: 14°   Ceiling: Unl
Heat Index: 14°   Visibility: 10mi
Dew Point:   Wind: 5mph
Humidity: 51%   Direction: 200°SSW
Pressure: 30.16"   Gusts: NA
Location:  40.48°N, 86.39°W
Report Text: KGGP 231915Z AUTO 20004KT 10SM CLR 14/04 A3016 RMK AO2
Loading
Personal Weather Stations






























Interactive Weather Map
Tropical Storm Tracking
New forecast layout! Learn more

10-Day Weather Forecast

Advertisements
Track Severe Weather on mobile